Louisa, VA

6:19 AM EDT on April 27, 2017 (GMT -0400)
Louisa County-Freeman

Weather History for KLKU - February, 2014

Change the Weather History Date:

Wednesday, February 12, 2014

  Actual Average (KOMH) Record (KOMH)
Temperature  
Mean Temperature 20 °F -  
Max Temperature 26 °F 46 °F 70 °F (1951)
Min Temperature 15 °F 23 °F 7 °F (1955)
Degree Days  
Heating Degree Days 44    
Moisture  
Dew Point 12 °F    
Average Humidity 68    
Maximum Humidity 93    
Minimum Humidity 47    
Precipitation  
Precipitation 0.03 in - - ()
Sea Level Pressure  
Sea Level Pressure 30.35 in    
Wind  
Wind Speed 4 mph (NNE)    
Max Wind Speed 14 mph    
Max Gust Speed 18 mph    
Visibility 8 miles    
Events Snow    
Averages and records for this station are not official NWS values.
T = Trace of Precipitation, MM = Missing Value Source: NWS Daily Summary

Daily Weather History Graph

Daily Weather History Graph

Search for Another Location

Airport or City:

Trip Planner

Search our weather history database for the weather conditions in past years. The results will help you decide how hot, cold, wet, or windy it might be!

Date:

Astronomy

Feb. 12, 2014 Rise Set
Actual Time 7:05 AM EST 5:47 PM EST
Civil Twilight 6:38 AM EST 6:14 PM EST
Nautical Twilight 6:07 AM EST 6:45 PM EST
Astronomical Twilight 5:36 AM EST 7:16 PM EST
Moon 4:00 PM EST (2/12) 5:20 AM EST (2/12)
Length of Visible Light 11h 36m
Length of Day
10h 42m
Waxing Gibbous, 95% of the Moon is Illuminated
Feb 12
Waxing Gibbous
Feb 14
Full
Feb 22
Last Quarter
Mar 1
New
Mar 8
First Quarter

Hourly Weather History & Observations

Time (EST) Temp. Windchill Dew Point Humidity Pressure Visibility Wind Dir Wind Speed Gust Speed Precip Events Conditions
12:15 AM 21.2 °F - 8.6 °F 58% 30.43 in 10.0 mi Calm Calm - N/A   Clear
12:35 AM 21.2 °F - 8.6 °F 58% 30.43 in 10.0 mi Calm Calm - N/A   Clear
12:55 AM 21.2 °F 16.4 °F 8.6 °F 58% 30.43 in 10.0 mi North 3.5 mph - N/A   Clear
1:15 AM 19.4 °F 14.3 °F 8.6 °F 63% 30.43 in 10.0 mi North 3.5 mph - N/A   Clear
1:35 AM 19.4 °F - 8.6 °F 63% 30.44 in 10.0 mi Calm Calm - N/A   Clear
1:55 AM 19.4 °F 14.3 °F 10.4 °F 68% 30.44 in 10.0 mi North 3.5 mph - N/A   Clear
2:15 AM 17.6 °F 12.3 °F 10.4 °F 73% 30.44 in 10.0 mi North 3.5 mph - N/A   Clear
2:35 AM 17.6 °F 10.7 °F 8.6 °F 68% 30.44 in 10.0 mi North 4.6 mph - N/A   Clear
2:55 AM 17.6 °F 10.7 °F 8.6 °F 68% 30.44 in 10.0 mi North 4.6 mph - N/A   Clear
3:15 AM 17.6 °F 10.7 °F 8.6 °F 68% 30.44 in 10.0 mi North 4.6 mph - N/A   Clear
3:35 AM 17.6 °F 12.3 °F 8.6 °F 68% 30.45 in 10.0 mi North 3.5 mph - N/A   Clear
3:55 AM 17.6 °F 12.3 °F 8.6 °F 68% 30.44 in 10.0 mi North 3.5 mph - N/A   Clear
4:15 AM 17.6 °F 10.7 °F 8.6 °F 68% 30.44 in 10.0 mi North 4.6 mph - N/A   Clear
4:35 AM 17.6 °F 12.3 °F 8.6 °F 68% 30.44 in 10.0 mi NNE 3.5 mph - N/A   Clear
4:55 AM 17.6 °F - 8.6 °F 68% 30.45 in 10.0 mi Calm Calm - N/A   Clear
5:15 AM 17.6 °F - 8.6 °F 68% 30.46 in 10.0 mi Calm Calm - N/A   Clear
5:35 AM 15.8 °F - 8.6 °F 73% 30.47 in 10.0 mi Calm Calm - N/A   Clear
5:55 AM 17.6 °F 12.3 °F 8.6 °F 68% 30.46 in 10.0 mi North 3.5 mph - N/A   Clear
6:15 AM 15.8 °F - 8.6 °F 73% 30.46 in 10.0 mi Calm Calm - N/A   Clear
6:35 AM 17.6 °F 12.3 °F 8.6 °F 68% 30.46 in 10.0 mi North 3.5 mph - N/A   Clear
6:55 AM 17.6 °F 10.7 °F 8.6 °F 68% 30.46 in 10.0 mi NNE 4.6 mph - N/A   Clear
7:15 AM 17.6 °F 10.7 °F 8.6 °F 68% 30.46 in 10.0 mi North 4.6 mph - N/A   Clear
7:35 AM 17.6 °F 10.7 °F 8.6 °F 68% 30.45 in 10.0 mi NNE 4.6 mph - N/A   Clear
7:55 AM 17.6 °F 10.7 °F 8.6 °F 68% 30.46 in 10.0 mi NNE 4.6 mph - N/A   Clear
8:15 AM 17.6 °F 9.3 °F 10.4 °F 73% 30.47 in 10.0 mi NNE 5.8 mph - N/A   Clear
8:35 AM 19.4 °F 12.8 °F 10.4 °F 68% 30.47 in 10.0 mi NE 4.6 mph - N/A   Clear
8:55 AM 19.4 °F 10.4 °F 10.4 °F 68% 30.47 in 10.0 mi ENE 6.9 mph - N/A   Clear
9:15 AM 21.2 °F 13.6 °F 10.4 °F 63% 30.47 in 10.0 mi ENE 5.8 mph - N/A   Clear
9:35 AM 21.2 °F 11.7 °F 10.4 °F 63% 30.45 in 10.0 mi ENE 8.1 mph - N/A   Clear
9:55 AM 21.2 °F 12.6 °F 10.4 °F 63% 30.46 in 10.0 mi East 6.9 mph - N/A   Clear
10:15 AM 23.0 °F - 10.4 °F 59% 30.48 in 10.0 mi Calm Calm - N/A   Clear
10:35 AM 24.8 °F 16.9 °F 8.6 °F 50% 30.47 in 10.0 mi NE 6.9 mph - N/A   Clear
10:55 AM 24.8 °F 19.1 °F 8.6 °F 50% 30.47 in 10.0 mi East 4.6 mph - N/A   Clear
11:15 AM 24.8 °F 19.1 °F 8.6 °F 50% 30.45 in 10.0 mi North 4.6 mph - N/A   Clear
11:35 AM 26.6 °F 21.2 °F 8.6 °F 47% 30.44 in 10.0 mi ENE 4.6 mph - N/A   Clear
11:55 AM 26.6 °F 18.2 °F 8.6 °F 47% 30.43 in 10.0 mi ENE 8.1 mph - N/A   Clear
12:15 PM 26.6 °F 20.0 °F 8.6 °F 47% 30.41 in 10.0 mi NE 5.8 mph - N/A   Clear
12:35 PM 26.6 °F 18.2 °F 8.6 °F 47% 30.39 in 10.0 mi NNE 8.1 mph - N/A   Clear
12:55 PM 26.6 °F 20.0 °F 8.6 °F 47% 30.39 in 10.0 mi ENE 5.8 mph - N/A   Clear
1:15 PM 26.6 °F 20.0 °F 8.6 °F 47% 30.39 in 10.0 mi ENE 5.8 mph - N/A   Clear
1:35 PM 26.6 °F 22.6 °F 8.6 °F 47% 30.39 in 10.0 mi East 3.5 mph - N/A   Clear
1:55 PM 26.6 °F 21.2 °F 8.6 °F 47% 30.38 in 10.0 mi East 4.6 mph - N/A   Clear
2:15 PM 26.6 °F 21.2 °F 8.6 °F 47% 30.37 in 10.0 mi ENE 4.6 mph - N/A   Clear
2:35 PM 26.6 °F 21.2 °F 8.6 °F 47% 30.36 in 10.0 mi NE 4.6 mph - N/A   Clear
2:55 PM 26.6 °F 20.0 °F 8.6 °F 47% 30.34 in 10.0 mi NNE 5.8 mph - N/A   Scattered Clouds
3:15 PM 26.6 °F 20.0 °F 8.6 °F 47% 30.33 in 10.0 mi NNE 5.8 mph - N/A   Scattered Clouds
3:35 PM 26.6 °F 20.0 °F 8.6 °F 47% 30.32 in 10.0 mi North 5.8 mph - N/A   Mostly Cloudy
3:55 PM 26.6 °F 20.0 °F 8.6 °F 47% 30.31 in 10.0 mi NE 5.8 mph - N/A   Overcast
4:15 PM 26.6 °F 20.0 °F 8.6 °F 47% 30.30 in 10.0 mi North 5.8 mph - N/A   Overcast
4:35 PM 26.6 °F 20.0 °F 8.6 °F 47% 30.30 in 10.0 mi NE 5.8 mph - N/A   Overcast
4:55 PM 26.6 °F 19.1 °F 10.4 °F 51% 30.29 in 10.0 mi NNE 6.9 mph - N/A   Overcast
5:15 PM 24.8 °F 19.1 °F 14.0 °F 64% 30.28 in 1.8 mi ENE 4.6 mph - N/A Snow Light Snow
5:35 PM 23.0 °F 14.7 °F 17.6 °F 80% 30.27 in 2.0 mi NE 6.9 mph - N/A Snow Light Snow
5:55 PM 21.2 °F 14.9 °F 17.6 °F 86% 30.26 in 2.5 mi NNE 4.6 mph - N/A Snow Light Snow
6:15 PM 21.2 °F 13.6 °F 19.4 °F 93% 30.26 in 2.0 mi NNE 5.8 mph - N/A Snow Light Snow
6:35 PM 21.2 °F 11.7 °F 19.4 °F 93% 30.25 in 3.0 mi NNE 8.1 mph - N/A Snow Light Snow
6:55 PM 21.2 °F 13.6 °F 19.4 °F 93% 30.24 in 1.5 mi North 5.8 mph - N/A Snow Light Snow
7:15 PM 21.2 °F 13.6 °F 19.4 °F 93% 30.24 in 1.2 mi NNE 5.8 mph - N/A   Overcast
7:35 PM 21.2 °F 12.6 °F 19.4 °F 93% 30.22 in 1.0 mi North 6.9 mph - N/A Snow Snow
7:55 PM 21.2 °F 11.7 °F 19.4 °F 93% 30.21 in 1.0 mi North 8.1 mph - N/A Snow Snow
8:15 PM 21.2 °F 11.7 °F 19.4 °F 93% 30.19 in 1.8 mi North 8.1 mph 16.1 mph N/A Snow Light Snow
8:35 PM 21.2 °F 10.9 °F 19.4 °F 93% 30.18 in 1.0 mi North 9.2 mph - N/A Snow Snow
8:55 PM 21.2 °F 11.7 °F 19.4 °F 93% 30.17 in 1.5 mi North 8.1 mph - N/A Snow Light Snow
9:15 PM 21.2 °F 13.6 °F 19.4 °F 93% 30.16 in 1.5 mi NNE 5.8 mph 16.1 mph N/A Snow Light Snow
9:35 PM 21.2 °F 10.1 °F 19.4 °F 93% 30.14 in 1.2 mi North 10.4 mph - N/A Snow Light Snow
9:55 PM 21.2 °F 10.1 °F 19.4 °F 93% 30.12 in 1.5 mi North 10.4 mph - N/A Snow Light Snow
10:15 PM 21.2 °F 11.7 °F 19.4 °F 93% 30.11 in 1.5 mi North 8.1 mph - N/A Snow Light Snow
10:35 PM 21.2 °F 10.9 °F 19.4 °F 93% 30.09 in 1.0 mi North 9.2 mph - N/A Snow Snow
10:55 PM 23.0 °F 11.1 °F 21.2 °F 93% 30.06 in 0.8 mi NNE 12.7 mph 17.3 mph N/A Snow Snow
11:15 PM 23.0 °F 10.6 °F 21.2 °F 93% 30.04 in 1.5 mi North 13.8 mph 18.4 mph N/A Snow Light Snow
11:35 PM 23.0 °F 13.1 °F 21.2 °F 93% 30.04 in 1.0 mi North 9.2 mph 16.1 mph 0.01 in Snow Light Snow
11:55 PM 23.0 °F 12.4 °F 21.2 °F 93% 30.01 in 0.5 mi NNE 10.4 mph 18.4 mph 0.03 in Snow Snow